HRYR/KGL METAR and TAF weather

Enter ICAO airport designator
Station Type Date Time Source
HRYR METAR 2022/01/26 20:30 UTC NOAA

HRYR 262030Z 01004KT 9999 FEW026 22/16 Q1018 NOSIG


Station Type Date Time Source
HRYR Decoded METAR 2022/01/26 20:30 UTC NOAA

Kigali, Rwanda (HRYR) 01-58S 030-07E 1497M
Jan 26, 2022 - 03:30 PM EST / 2022.01.26 2030 UTC
Wind: from the N (010 degrees) at 5 MPH (4 KT):0
Visibility: greater than 7 mile(s):0
Sky conditions: mostly clear
Temperature: 71 F (22 C)
Dew Point: 60 F (16 C)
Relative Humidity: 68%
Pressure (altimeter): 30.06 in. Hg (1018 hPa)
ob: HRYR 262030Z 01004KT 9999 FEW026 22/16 Q1018 NOSIG
cycle: 20

Station Type Date Time Source
HRYR TAF 2022/01/26 18:54 UTC NOAA

TAF HRYR 261700Z 2618/2724 07004KT 9999 SCT025 SCT100
BECMG 2702/2705 32004KT BKN025 FM 270800 06008KT 9999 SCT023
TEMPO 2713/2717 15012KT TS FEW022CB BKN025
BECMG 2720/2723 26004KT NSW SCT026 SCT100

Example: see airport list